Time;durP1;ratioP1;P1;durP2;ratioP2;P2;SDS_P1;SDS_P2;PMS_P1;PMS_P2;Temp;Humidity;BMP_temperature;BMP_pressure;BME280_temperature;BME280_humidity;BME280_pressure;Samples;Min_cycle;Max_cycle;Signal;HPM_P1;HPM_P2
2022/08/08 00:01:22;;;;;;;4.40;2.40;;;17.90;99.90;;;;;;5036861;28;20954;-80
2022/08/08 00:04:00;;;;;;;3.50;2.20;;;17.90;99.90;;;;;;5036597;28;20562;-80
2022/08/08 00:06:40;;;;;;;3.00;2.00;;;17.80;99.90;;;;;;5037278;28;20464;-81
2022/08/08 00:09:14;;;;;;;4.03;1.80;;;17.70;99.90;;;;;;5018017;28;20939;-82
2022/08/08 00:11:43;;;;;;;4.00;2.10;;;17.70;99.90;;;;;;5036015;28;21004;-83
2022/08/08 00:14:23;;;;;;;3.60;2.10;;;17.70;99.90;;;;;;5032915;28;20470;-80
2022/08/08 00:16:55;;;;;;;5.40;2.07;;;17.60;99.90;;;;;;5021909;28;20822;-80
2022/08/08 00:19:29;;;;;;;3.80;2.53;;;17.60;99.90;;;;;;5036033;28;20446;-80
2022/08/08 00:22:02;;;;;;;3.00;1.93;;;17.60;99.90;;;;;;5037358;28;20463;-83
2022/08/08 00:24:36;;;;;;;3.73;2.63;;;17.50;99.90;;;;;;5035850;28;21077;-79
2022/08/08 00:27:09;;;;;;;3.80;2.43;;;17.50;99.90;;;;;;5036590;28;20470;-81
2022/08/08 00:29:43;;;;;;;3.93;2.43;;;17.40;99.90;;;;;;5035776;28;20554;-81
2022/08/08 00:32:14;;;;;;;4.73;2.63;;;17.40;99.90;;;;;;5036651;28;20453;-82
2022/08/08 00:35:15;;;;;;;2.97;2.20;;;17.40;99.90;;;;;;5035357;28;20464;-82
2022/08/08 00:37:57;;;;;;;4.33;1.87;;;17.40;99.90;;;;;;5036296;28;21008;-81
2022/08/08 00:41:06;;;;;;;5.10;2.90;;;17.30;99.90;;;;;;5035858;28;20980;-80
2022/08/08 00:44:04;;;;;;;6.17;2.87;;;17.30;99.90;;;;;;5035462;28;20501;-81
2022/08/08 00:47:12;;;;;;;5.20;3.00;;;17.30;99.90;;;;;;5004874;28;20488;-82
2022/08/08 00:50:33;;;;;;;3.40;2.30;;;17.20;99.90;;;;;;5014108;28;20485;-80
2022/08/08 00:53:13;;;;;;;3.47;2.10;;;17.20;99.90;;;;;;5019217;28;21043;-79
2022/08/08 00:56:18;;;;;;;4.33;2.20;;;17.20;99.90;;;;;;5035985;28;20559;-80
2022/08/08 00:59:36;;;;;;;3.77;2.57;;;17.10;99.90;;;;;;5036200;28;20957;-81
2022/08/08 01:02:22;;;;;;;3.67;2.30;;;17.10;99.90;;;;;;5021630;28;20903;-80
2022/08/08 01:05:14;;;;;;;4.00;2.77;;;17.00;99.90;;;;;;5035180;28;20534;-83
2022/08/08 01:08:08;;;;;;;5.53;2.40;;;17.00;99.90;;;;;;5036218;28;20450;-80
2022/08/08 01:10:55;;;;;;;4.40;2.50;;;17.00;99.90;;;;;;5034079;28;20496;-80
2022/08/08 01:14:00;;;;;;;4.37;2.60;;;16.90;99.90;;;;;;5034676;28;20562;-80
2022/08/08 01:16:59;;;;;;;4.37;2.63;;;16.90;99.90;;;;;;5036197;28;20891;-80
2022/08/08 01:19:59;;;;;;;4.63;2.17;;;16.80;99.90;;;;;;4995927;28;20468;-80
2022/08/08 01:22:58;;;;;;;3.53;2.17;;;16.80;99.90;;;;;;5035426;28;20551;-80
2022/08/08 01:26:19;;;;;;;3.97;2.40;;;16.80;99.90;;;;;;5035186;28;20515;-79
2022/08/08 01:29:11;;;;;;;4.27;2.60;;;16.80;99.90;;;;;;5034715;28;20969;-80
2022/08/08 01:32:22;;;;;;;3.97;2.60;;;16.70;99.90;;;;;;5034730;28;20914;-80
2022/08/08 01:35:14;;;;;;;3.70;2.50;;;16.70;99.90;;;;;;5031267;28;20895;-80
2022/08/08 01:38:29;;;;;;;4.20;2.73;;;16.60;99.90;;;;;;5022627;28;20530;-80
2022/08/08 01:41:05;;;;;;;3.50;2.60;;;16.60;99.90;;;;;;4994243;28;20461;-80
2022/08/08 01:43:39;;;;;;;3.73;2.77;;;16.50;99.90;;;;;;5029785;28;20927;-80
2022/08/08 01:46:24;;;;;;;3.30;2.43;;;16.50;99.90;;;;;;5035542;28;20539;-80
2022/08/08 01:48:58;;;;;;;4.30;2.63;;;16.40;99.90;;;;;;5035073;28;20512;-81
2022/08/08 01:51:42;;;;;;;5.93;3.30;;;16.40;99.90;;;;;;5035775;28;20535;-80
2022/08/08 01:54:18;;;;;;;6.13;2.50;;;16.40;99.90;;;;;;5034501;28;20551;-80
2022/08/08 01:57:04;;;;;;;3.50;2.30;;;16.40;99.90;;;;;;5035235;28;21029;-80
2022/08/08 01:59:55;;;;;;;4.13;2.40;;;16.30;99.90;;;;;;5034946;28;20539;-80
2022/08/08 02:05:18;;;;;;;4.43;2.80;;;16.20;99.90;;;;;;5033146;28;20530;-80
2022/08/08 02:08:00;;;;;;;5.37;2.20;;;16.20;99.90;;;;;;5035251;28;20492;-78
2022/08/08 02:10:53;;;;;;;5.20;2.60;;;16.10;99.90;;;;;;5035539;28;20521;-77
2022/08/08 02:13:25;;;;;;;3.80;2.40;;;16.10;99.90;;;;;;5033463;28;20521;-81
2022/08/08 02:15:58;;;;;;;4.70;2.70;;;16.10;99.90;;;;;;5027422;28;20544;-80
2022/08/08 02:18:36;;;;;;;4.10;2.40;;;16.10;99.90;;;;;;5035073;28;20535;-79
2022/08/08 02:24:14;;;;;;;4.13;2.70;;;16.10;99.90;;;;;;5031150;28;20471;-79
2022/08/08 02:26:49;;;;;;;5.20;2.73;;;16.00;99.90;;;;;;5035708;28;20464;-79
2022/08/08 02:29:26;;;;;;;3.33;2.33;;;15.90;99.90;;;;;;5035579;28;20459;-80
2022/08/08 02:32:11;;;;;;;5.43;2.47;;;15.90;99.90;;;;;;5037311;28;20452;-80
2022/08/08 02:35:03;;;;;;;3.80;2.50;;;15.90;99.90;;;;;;5014628;28;20484;-79
2022/08/08 02:37:49;;;;;;;3.20;2.23;;;15.90;99.90;;;;;;5020509;28;20547;-79
2022/08/08 02:40:23;;;;;;;3.77;2.67;;;15.90;99.90;;;;;;5034967;28;20543;-78
2022/08/08 02:43:54;;;;;;;4.77;3.10;;;15.80;99.90;;;;;;5034032;28;20880;-81
2022/08/08 02:46:56;;;;;;;4.20;2.30;;;15.80;99.90;;;;;;5034451;28;20542;-78
2022/08/08 02:50:01;;;;;;;4.00;2.40;;;15.70;99.90;;;;;;5034951;28;21043;-80
2022/08/08 02:52:53;;;;;;;5.83;3.27;;;15.70;99.90;;;;;;5034815;28;20911;-79
2022/08/08 02:56:01;;;;;;;4.87;2.93;;;15.70;99.90;;;;;;5035238;28;20469;-78
2022/08/08 02:59:02;;;;;;;3.80;2.07;;;15.60;99.90;;;;;;5036228;28;20456;-79
2022/08/08 03:02:08;;;;;;;3.77;2.80;;;15.60;99.90;;;;;;5038406;28;20516;-79
2022/08/08 03:05:15;;;;;;;4.63;2.70;;;15.60;99.90;;;;;;5036919;28;20488;-78
2022/08/08 03:08:17;;;;;;;4.20;2.97;;;15.50;99.90;;;;;;5038135;28;20475;-78
2022/08/08 03:11:15;;;;;;;3.00;2.10;;;15.50;99.90;;;;;;5049325;28;20519;-79
2022/08/08 03:13:53;;;;;;;4.10;3.10;;;15.50;99.90;;;;;;5041765;28;20683;-78
2022/08/08 03:16:34;;;;;;;4.70;2.90;;;15.40;99.90;;;;;;5039046;28;20519;-79
2022/08/08 03:19:28;;;;;;;3.93;3.10;;;15.40;99.90;;;;;;5037901;28;20471;-78
2022/08/08 03:21:55;;;;;;;4.80;2.90;;;15.30;99.90;;;;;;5038660;28;20838;-77
2022/08/08 03:24:23;;;;;;;3.77;2.80;;;15.30;99.90;;;;;;5035957;28;20559;-77
2022/08/08 03:26:56;;;;;;;8.20;2.80;;;15.30;99.90;;;;;;5036960;28;20888;-78
2022/08/08 03:29:30;;;;;;;4.63;3.17;;;15.30;99.90;;;;;;5035178;28;20546;-78
2022/08/08 03:34:43;;;;;;;3.50;2.50;;;15.30;99.90;;;;;;5031466;28;20475;-78
2022/08/08 03:37:15;;;;;;;4.60;3.10;;;15.30;99.90;;;;;;5038408;28;20481;-78
2022/08/08 03:39:45;;;;;;;4.90;2.87;;;15.30;99.90;;;;;;5037945;28;20541;-78
2022/08/08 03:42:15;;;;;;;6.27;3.07;;;15.30;99.90;;;;;;5036801;28;20987;-79
2022/08/08 03:44:42;;;;;;;4.47;2.80;;;15.30;99.90;;;;;;5037234;28;20482;-78
2022/08/08 03:47:10;;;;;;;4.13;3.13;;;15.30;99.90;;;;;;5037620;28;20457;-78
2022/08/08 03:49:39;;;;;;;5.10;3.10;;;15.20;99.90;;;;;;5037641;28;20484;-78
2022/08/08 03:52:06;;;;;;;4.63;3.43;;;15.20;99.90;;;;;;5037175;28;20460;-78
2022/08/08 03:54:33;;;;;;;4.63;2.83;;;15.20;99.90;;;;;;5037197;28;21032;-78
2022/08/08 03:57:01;;;;;;;6.00;3.87;;;15.20;99.90;;;;;;5038000;28;20499;-77
2022/08/08 03:59:31;;;;;;;5.20;3.43;;;15.20;99.90;;;;;;5038350;28;20536;-81
2022/08/08 04:01:58;;;;;;;6.17;3.60;;;15.20;99.90;;;;;;5038027;28;20513;-78
2022/08/08 04:04:25;;;;;;;4.33;3.00;;;15.20;99.90;;;;;;5037481;28;20927;-78
2022/08/08 04:06:58;;;;;;;5.10;3.20;;;15.10;99.90;;;;;;5037794;28;20542;-78
2022/08/08 04:09:25;;;;;;;5.00;3.20;;;15.10;99.90;;;;;;5038089;28;20550;-79
2022/08/08 04:11:52;;;;;;;5.03;3.10;;;15.10;99.90;;;;;;5036316;28;20518;-79
2022/08/08 04:14:20;;;;;;;5.67;4.57;;;15.10;99.90;;;;;;5035846;28;20555;-79
2022/08/08 04:16:47;;;;;;;4.90;3.40;;;15.10;99.90;;;;;;5036400;28;20456;-78
2022/08/08 04:19:14;;;;;;;6.27;3.40;;;15.10;99.90;;;;;;5036895;28;20459;-78
2022/08/08 04:21:41;;;;;;;5.40;3.70;;;15.10;99.90;;;;;;5037663;28;20540;-78
2022/08/08 04:24:08;;;;;;;8.27;4.03;;;15.10;99.90;;;;;;5036170;28;20927;-79
2022/08/08 04:26:34;;;;;;;5.23;3.00;;;15.10;99.90;;;;;;5036910;28;20460;-78
2022/08/08 04:29:02;;;;;;;4.90;3.20;;;15.10;99.90;;;;;;5037162;28;20519;-78
2022/08/08 04:31:30;;;;;;;4.93;3.93;;;15.10;99.90;;;;;;5037401;28;20575;-79
2022/08/08 04:33:57;;;;;;;5.20;3.77;;;15.10;99.90;;;;;;5036192;28;20508;-78
2022/08/08 04:36:25;;;;;;;4.70;3.40;;;15.10;99.90;;;;;;5036985;28;20487;-78
2022/08/08 04:38:52;;;;;;;6.57;3.60;;;15.10;99.90;;;;;;5037254;28;20480;-78
2022/08/08 04:41:19;;;;;;;6.43;3.53;;;15.20;99.90;;;;;;5036936;28;20449;-78
2022/08/08 04:43:46;;;;;;;6.23;3.67;;;15.20;99.90;;;;;;5035492;28;20572;-79
2022/08/08 04:46:13;;;;;;;6.30;3.53;;;15.20;99.90;;;;;;5035652;28;20546;-78
2022/08/08 04:48:42;;;;;;;4.73;3.97;;;15.20;99.90;;;;;;5035963;28;20548;-78
2022/08/08 04:51:09;;;;;;;5.73;4.53;;;15.30;99.90;;;;;;5036187;28;20494;-79
2022/08/08 04:53:35;;;;;;;5.83;3.97;;;15.30;99.90;;;;;;5034658;28;20551;-78
2022/08/08 04:56:03;;;;;;;4.83;3.83;;;15.30;99.90;;;;;;5036461;28;20452;-79
2022/08/08 04:58:30;;;;;;;6.60;4.20;;;15.40;99.90;;;;;;5035080;28;20472;-77
2022/08/08 05:00:57;;;;;;;6.30;4.60;;;15.40;99.90;;;;;;5036693;28;20544;-79
2022/08/08 05:03:23;;;;;;;5.77;4.73;;;15.50;99.90;;;;;;5035819;28;20921;-78
2022/08/08 05:05:52;;;;;;;7.50;4.53;;;15.50;99.90;;;;;;5038161;28;20544;-78
2022/08/08 05:08:19;;;;;;;9.73;5.30;;;15.60;99.90;;;;;;5037197;28;20539;-79
2022/08/08 05:10:46;;;;;;;5.93;5.17;;;15.70;99.90;;;;;;5038380;28;21039;-79
2022/08/08 05:13:12;;;;;;;6.10;4.87;;;15.70;99.90;;;;;;5045340;28;20527;-79
2022/08/08 05:15:39;;;;;;;8.10;5.70;;;15.80;99.90;;;;;;5048139;28;20471;-80
2022/08/08 05:18:06;;;;;;;6.90;5.13;;;15.80;99.90;;;;;;5039242;28;20536;-79
2022/08/08 05:20:33;;;;;;;8.00;5.10;;;15.90;99.90;;;;;;5036692;28;20542;-78
2022/08/08 05:23:01;;;;;;;7.70;5.30;;;16.00;99.90;;;;;;5046024;28;20521;-80
2022/08/08 05:25:28;;;;;;;8.30;5.63;;;16.10;99.90;;;;;;5036848;28;21000;-78
2022/08/08 05:27:55;;;;;;;7.47;5.47;;;16.10;99.90;;;;;;5036922;28;20460;-78
2022/08/08 05:30:22;;;;;;;8.33;6.27;;;16.20;99.90;;;;;;5035777;28;20479;-79
2022/08/08 05:32:49;;;;;;;10.87;6.43;;;16.20;99.90;;;;;;5033709;28;20477;-78
2022/08/08 05:35:17;;;;;;;12.10;6.27;;;16.30;99.90;;;;;;5034822;28;20460;-79
2022/08/08 05:37:52;;;;;;;9.43;6.03;;;16.30;99.90;;;;;;5034433;28;20536;-78
2022/08/08 05:40:21;;;;;;;8.67;6.20;;;16.40;99.90;;;;;;5035851;28;20538;-78
2022/08/08 05:42:51;;;;;;;7.33;5.53;;;16.40;99.90;;;;;;5038054;28;20485;-78
2022/08/08 05:45:18;;;;;;;9.93;6.00;;;16.50;99.90;;;;;;5034374;28;20540;-78
2022/08/08 05:47:46;;;;;;;8.53;6.00;;;16.50;99.90;;;;;;5034349;28;20528;-78
2022/08/08 05:50:13;;;;;;;15.50;5.97;;;16.60;99.90;;;;;;5033523;28;20450;-78
2022/08/08 05:52:40;;;;;;;8.50;5.70;;;16.60;99.90;;;;;;5032990;28;20533;-77
2022/08/08 05:55:09;;;;;;;10.00;6.70;;;16.60;99.90;;;;;;5032347;28;21004;-77
2022/08/08 05:57:39;;;;;;;13.90;6.30;;;16.70;99.90;;;;;;5033696;28;20897;-77
2022/08/08 06:00:08;;;;;;;8.10;5.33;;;16.70;99.90;;;;;;5032437;28;20548;-78
2022/08/08 06:05:21;;;;;;;6.93;6.23;;;16.80;99.90;;;;;;5030701;28;20443;-77
2022/08/08 06:07:50;;;;;;;10.77;5.77;;;16.90;99.90;;;;;;5033426;28;20833;-78
2022/08/08 06:10:19;;;;;;;8.80;6.20;;;16.90;99.90;;;;;;5032674;28;20445;-77
2022/08/08 06:12:48;;;;;;;7.93;6.20;;;17.00;99.90;;;;;;5032752;28;20493;-77
2022/08/08 06:15:15;;;;;;;8.30;6.17;;;17.00;99.90;;;;;;5032996;28;20545;-76
2022/08/08 06:17:42;;;;;;;7.63;6.30;;;17.00;99.90;;;;;;5030899;28;20540;-78
2022/08/08 06:20:11;;;;;;;10.97;6.63;;;17.10;99.90;;;;;;5032498;28;20535;-77
2022/08/08 06:22:38;;;;;;;9.20;6.53;;;17.20;99.90;;;;;;5032374;28;20537;-77
2022/08/08 06:25:07;;;;;;;9.00;6.87;;;17.20;99.90;;;;;;5032407;28;20544;-77
2022/08/08 06:27:40;;;;;;;10.17;7.00;;;17.30;99.90;;;;;;5033826;28;20553;-79
2022/08/08 06:30:11;;;;;;;10.90;6.27;;;17.30;99.90;;;;;;5034200;28;20448;-78
2022/08/08 06:32:43;;;;;;;8.87;6.30;;;17.40;99.90;;;;;;5034105;28;20516;-78
2022/08/08 06:35:13;;;;;;;9.20;6.73;;;17.40;99.90;;;;;;5033864;28;20441;-78
2022/08/08 06:37:45;;;;;;;8.10;7.30;;;17.50;99.90;;;;;;5031257;28;21457;-79
2022/08/08 06:40:14;;;;;;;8.33;6.80;;;17.50;99.90;;;;;;5037222;28;20684;-82
2022/08/08 06:42:47;;;;;;;11.97;8.20;;;17.60;99.90;;;;;;5036149;28;20448;-79
2022/08/08 06:45:15;;;;;;;9.77;7.33;;;17.60;99.90;;;;;;5043249;28;20472;-79
2022/08/08 06:47:42;;;;;;;7.43;5.93;;;17.60;99.90;;;;;;5047124;28;20828;-80
2022/08/08 06:50:11;;;;;;;7.07;6.13;;;17.60;99.90;;;;;;5045630;28;20454;-80
2022/08/08 06:52:39;;;;;;;10.13;6.30;;;17.70;99.90;;;;;;5043441;28;20481;-80
2022/08/08 06:55:07;;;;;;;9.33;7.10;;;17.70;99.90;;;;;;5038675;28;20558;-78
2022/08/08 06:57:34;;;;;;;11.17;7.07;;;17.80;99.90;;;;;;5032922;28;20474;-80
2022/08/08 07:00:01;;;;;;;9.63;7.30;;;17.80;99.90;;;;;;5029110;28;20884;-79
2022/08/08 07:02:33;;;;;;;8.20;7.27;;;17.90;99.90;;;;;;5033901;28;20449;-79
2022/08/08 07:05:05;;;;;;;9.20;6.73;;;17.90;99.90;;;;;;5029628;28;20514;-78
2022/08/08 07:07:42;;;;;;;7.97;6.83;;;17.90;99.90;;;;;;5032551;28;20453;-78
2022/08/08 07:10:11;;;;;;;8.73;7.50;;;18.00;99.90;;;;;;5033897;28;21032;-78
2022/08/08 07:12:40;;;;;;;8.90;6.70;;;18.10;99.90;;;;;;5034069;28;20528;-79
2022/08/08 07:15:10;;;;;;;8.63;7.43;;;18.10;99.90;;;;;;5032694;28;20456;-78
2022/08/08 07:17:46;;;;;;;10.67;7.37;;;18.20;99.90;;;;;;5042112;28;20451;-78
2022/08/08 07:20:18;;;;;;;8.97;7.47;;;18.30;99.90;;;;;;5033709;28;21108;-79
2022/08/08 07:22:59;;;;;;;8.50;6.70;;;18.30;99.90;;;;;;5033310;28;20443;-77
2022/08/08 07:25:27;;;;;;;11.40;8.67;;;18.40;99.90;;;;;;5033056;28;20966;-80
2022/08/08 07:28:18;;;;;;;10.43;7.07;;;18.50;99.90;;;;;;5029227;28;20546;-77
2022/08/08 07:30:46;;;;;;;10.73;7.70;;;18.60;99.90;;;;;;5031864;28;20456;-76
2022/08/08 07:33:15;;;;;;;11.47;8.00;;;18.60;99.90;;;;;;5026543;28;20533;-79
2022/08/08 07:35:43;;;;;;;9.50;8.07;;;18.70;99.90;;;;;;5033005;28;21007;-78
2022/08/08 07:38:10;;;;;;;8.07;6.60;;;18.80;99.90;;;;;;5033861;28;20514;-79
2022/08/08 07:40:43;;;;;;;9.43;7.50;;;18.90;99.90;;;;;;5031551;28;20453;-80
2022/08/08 07:43:12;;;;;;;9.00;7.17;;;19.00;99.90;;;;;;5031231;28;20550;-78
2022/08/08 07:45:40;;;;;;;7.50;6.57;;;19.00;99.90;;;;;;5035569;28;20479;-79
2022/08/08 07:48:07;;;;;;;12.00;6.90;;;19.10;99.90;;;;;;5030887;28;20461;-79
2022/08/08 07:50:38;;;;;;;8.13;4.87;;;19.20;99.90;;;;;;5033647;28;20495;-77
2022/08/08 07:53:12;;;;;;;9.03;6.27;;;19.20;99.90;;;;;;5033730;28;20506;-78
2022/08/08 07:55:39;;;;;;;9.77;6.17;;;19.30;99.90;;;;;;5033308;28;20529;-78
2022/08/08 07:58:18;;;;;;;6.87;5.47;;;19.50;99.90;;;;;;5030513;28;20460;-78
2022/08/08 08:00:51;;;;;;;8.03;6.10;;;19.50;99.90;;;;;;5031861;28;20982;-78
2022/08/08 08:03:29;;;;;;;8.40;5.30;;;19.70;99.90;;;;;;5033000;28;20530;-78
2022/08/08 08:05:59;;;;;;;6.60;4.67;;;19.70;99.90;;;;;;5030052;28;20460;-78
2022/08/08 08:08:30;;;;;;;8.07;5.03;;;19.80;99.90;;;;;;5032622;28;20981;-78
2022/08/08 08:10:58;;;;;;;8.57;5.30;;;19.90;99.90;;;;;;5035858;28;20452;-78
2022/08/08 08:13:39;;;;;;;11.33;6.53;;;20.00;99.90;;;;;;5035845;28;20511;-78
2022/08/08 08:16:07;;;;;;;7.57;5.20;;;20.00;99.90;;;;;;5029709;28;20456;-77
2022/08/08 08:18:41;;;;;;;7.33;5.53;;;20.20;99.90;;;;;;5035982;28;20543;-80
2022/08/08 08:21:10;;;;;;;9.50;5.70;;;20.30;99.90;;;;;;5031432;28;20441;-76
2022/08/08 08:23:37;;;;;;;9.13;5.87;;;20.40;99.90;;;;;;5031435;28;20508;-77
2022/08/08 08:26:04;;;;;;;7.10;5.40;;;20.50;99.90;;;;;;5035780;28;20449;-77
2022/08/08 08:28:31;;;;;;;6.53;4.50;;;20.60;99.90;;;;;;5032986;28;20488;-78
2022/08/08 08:31:03;;;;;;;7.23;4.47;;;20.80;99.90;;;;;;5032725;28;20559;-78
2022/08/08 08:33:31;;;;;;;6.60;4.83;;;20.90;99.90;;;;;;5032123;28;20472;-79
2022/08/08 08:35:58;;;;;;;7.13;4.83;;;21.10;99.90;;;;;;5032290;28;20540;-79
2022/08/08 08:38:26;;;;;;;5.90;4.37;;;21.30;99.90;;;;;;5025592;28;20508;-79
2022/08/08 08:40:53;;;;;;;7.50;4.50;;;21.50;99.90;;;;;;5020476;28;20529;-77
2022/08/08 08:43:21;;;;;;;5.07;4.10;;;21.60;99.90;;;;;;5022409;28;20501;-79
2022/08/08 08:45:48;;;;;;;7.93;5.50;;;21.90;99.90;;;;;;5024946;28;20537;-78
2022/08/08 08:48:18;;;;;;;6.47;4.43;;;22.10;99.90;;;;;;5022059;28;20870;-78
2022/08/08 08:50:49;;;;;;;9.13;5.37;;;22.40;99.90;;;;;;5030042;28;20535;-78
2022/08/08 08:53:16;;;;;;;6.30;4.43;;;22.40;99.90;;;;;;5024568;28;20512;-79
2022/08/08 08:55:45;;;;;;;7.50;5.13;;;22.60;99.90;;;;;;5031308;28;20499;-78
2022/08/08 08:58:23;;;;;;;6.07;4.20;;;22.70;99.90;;;;;;5034577;28;20456;-80
2022/08/08 09:00:50;;;;;;;8.93;3.80;;;23.00;99.90;;;;;;5036338;28;20444;-79
2022/08/08 09:03:20;;;;;;;5.20;4.07;;;23.20;99.90;;;;;;5033009;28;20548;-78
2022/08/08 09:05:48;;;;;;;4.70;3.50;;;23.40;99.90;;;;;;5020569;28;20466;-80
2022/08/08 09:08:17;;;;;;;6.83;4.73;;;23.60;99.90;;;;;;5076359;22;20542;-81
2022/08/08 09:10:46;;;;;;;6.70;4.30;;;23.80;99.90;;;;;;5051550;28;20454;-80
2022/08/08 09:13:16;;;;;;;6.80;4.13;;;23.90;99.90;;;;;;5046137;28;20552;-81
2022/08/08 09:15:43;;;;;;;8.17;4.00;;;24.10;99.90;;;;;;5050304;28;20467;-84
2022/08/08 09:18:10;;;;;;;5.10;3.80;;;24.40;99.90;;;;;;5059697;28;20471;-86
2022/08/08 09:20:37;;;;;;;5.00;3.50;;;24.80;99.90;;;;;;5060741;28;20535;-79
2022/08/08 09:23:04;;;;;;;5.40;3.67;;;25.00;99.90;;;;;;5056417;28;20456;-79
2022/08/08 09:25:35;;;;;;;6.60;3.50;;;25.30;99.90;;;;;;5056476;28;20512;-80
2022/08/08 09:28:03;;;;;;;5.60;3.10;;;25.40;99.90;;;;;;5057362;28;20504;-79
2022/08/08 09:30:33;;;;;;;7.17;3.47;;;25.60;99.90;;;;;;5057685;28;20520;-81
2022/08/08 09:33:02;;;;;;;4.70;3.30;;;25.60;99.90;;;;;;5055059;28;20519;-78
2022/08/08 09:35:32;;;;;;;5.30;3.50;;;25.80;99.90;;;;;;5055563;28;21180;-79
2022/08/08 09:38:01;;;;;;;6.07;3.90;;;25.80;99.90;;;;;;5055609;28;20519;-82
2022/08/08 09:40:30;;;;;;;4.87;2.87;;;25.90;99.90;;;;;;5051278;28;20451;-79
2022/08/08 09:43:17;;;;;;;4.50;3.27;;;26.10;99.90;;;;;;5050823;28;20491;-79
2022/08/08 09:45:48;;;;;;;4.97;3.77;;;26.10;99.90;;;;;;5054042;28;20476;-78
2022/08/08 09:48:18;;;;;;;16.87;5.90;;;26.00;99.90;;;;;;5055826;28;20563;-79
2022/08/08 09:50:46;;;;;;;5.10;3.40;;;26.00;99.90;;;;;;5054664;28;20456;-80
2022/08/08 09:53:19;;;;;;;6.17;3.40;;;25.90;99.90;;;;;;5047654;28;20872;-80
2022/08/08 09:55:46;;;;;;;10.50;5.20;;;25.90;99.90;;;;;;5045411;28;21194;-79
2022/08/08 09:58:18;;;;;;;4.73;3.90;;;25.80;99.90;;;;;;5042455;28;20477;-80
2022/08/08 10:00:48;;;;;;;6.00;3.60;;;25.80;99.90;;;;;;5053433;28;20550;-78
2022/08/08 10:03:17;;;;;;;7.97;3.43;;;25.80;99.90;;;;;;5056225;28;20543;-80
2022/08/08 10:05:44;;;;;;;6.17;3.17;;;25.90;99.90;;;;;;5056136;28;20459;-83
2022/08/08 10:08:11;;;;;;;6.67;3.70;;;26.00;99.90;;;;;;5057332;28;20548;-81
2022/08/08 10:10:40;;;;;;;5.20;3.93;;;25.80;99.90;;;;;;5056816;28;20478;-79
2022/08/08 10:13:19;;;;;;;7.63;3.83;;;25.80;99.90;;;;;;5058619;28;20587;-81
2022/08/08 10:15:49;;;;;;;5.33;3.53;;;26.20;99.90;;;;;;5066448;28;20447;-80
2022/08/08 10:18:24;;;;;;;4.97;3.43;;;26.20;99.90;;;;;;5064758;28;21062;-80
2022/08/08 10:20:53;;;;;;;5.37;3.30;;;26.20;99.90;;;;;;5059338;28;20514;-79
2022/08/08 10:23:25;;;;;;;4.70;3.10;;;26.70;99.90;;;;;;5058928;28;20451;-78
2022/08/08 10:25:53;;;;;;;7.43;4.00;;;27.00;99.90;;;;;;5056707;28;20456;-82
2022/08/08 10:28:22;;;;;;;6.13;3.73;;;26.80;99.90;;;;;;5047556;28;21000;-80
2022/08/08 10:30:57;;;;;;;6.83;3.20;;;26.80;99.90;;;;;;5058143;28;20483;-82
2022/08/08 10:33:31;;;;;;;9.33;3.50;;;27.20;99.90;;;;;;5057953;28;20478;-83
2022/08/08 10:36:02;;;;;;;5.00;3.17;;;27.30;99.90;;;;;;5054712;28;20990;-79
2022/08/08 10:38:31;;;;;;;4.20;2.83;;;26.80;99.90;;;;;;5059716;28;20471;-80
2022/08/08 10:41:04;;;;;;;6.17;3.43;;;27.00;99.90;;;;;;5048899;28;20449;-80
2022/08/08 10:43:39;;;;;;;4.63;3.30;;;27.10;99.90;;;;;;5051603;28;20433;-79
2022/08/08 10:46:24;;;;;;;5.10;3.13;;;27.20;99.90;;;;;;5054748;28;20443;-82
2022/08/08 10:48:52;;;;;;;4.00;2.77;;;27.20;99.90;;;;;;5052440;28;20448;-82
2022/08/08 10:51:19;;;;;;;5.67;3.77;;;27.50;99.90;;;;;;5055652;28;20454;-77
2022/08/08 10:53:49;;;;;;;7.27;3.90;;;27.60;99.90;;;;;;5057666;28;21255;-79
2022/08/08 10:56:17;;;;;;;3.87;2.60;;;27.50;99.90;;;;;;5059997;28;20478;-79
2022/08/08 10:58:45;;;;;;;4.90;2.73;;;27.20;99.90;;;;;;5057403;28;21053;-79
2022/08/08 11:01:13;;;;;;;4.90;3.10;;;27.60;99.90;;;;;;5052776;28;20542;-79
2022/08/08 11:03:42;;;;;;;4.10;2.73;;;27.70;99.90;;;;;;5039905;28;20538;-80
2022/08/08 11:06:09;;;;;;;4.40;3.17;;;27.70;99.90;;;;;;5056880;28;20448;-79
2022/08/08 11:08:36;;;;;;;4.17;2.60;;;27.70;99.90;;;;;;5048453;28;20531;-83
2022/08/08 11:11:07;;;;;;;7.23;3.10;;;28.10;99.90;;;;;;5052272;28;20516;-78
2022/08/08 11:13:39;;;;;;;3.27;2.37;;;28.30;99.90;;;;;;5048895;28;20507;-81
2022/08/08 11:16:11;;;;;;;7.80;2.97;;;28.80;99.90;;;;;;5056317;28;20478;-81
2022/08/08 11:18:39;;;;;;;5.53;3.50;;;28.70;99.90;;;;;;5054928;28;21047;-81
2022/08/08 11:21:07;;;;;;;4.80;2.57;;;28.90;99.90;;;;;;5047635;28;20861;-80
2022/08/08 11:23:36;;;;;;;3.50;2.80;;;28.90;99.90;;;;;;5057755;28;20520;-82
2022/08/08 11:26:05;;;;;;;3.93;2.23;;;29.10;99.90;;;;;;5045366;28;20457;-81
2022/08/08 11:28:35;;;;;;;4.07;3.00;;;29.40;99.90;;;;;;5048025;28;20567;-83
2022/08/08 11:31:04;;;;;;;3.50;2.83;;;29.60;99.90;;;;;;5055460;28;20991;-81
2022/08/08 11:33:35;;;;;;;3.63;2.50;;;29.60;99.90;;;;;;5042312;28;20564;-81
2022/08/08 11:36:02;;;;;;;3.80;2.57;;;29.60;99.90;;;;;;5044653;28;20932;-80
2022/08/08 11:38:30;;;;;;;5.93;3.00;;;29.80;99.90;;;;;;5044035;28;20507;-78
2022/08/08 11:40:57;;;;;;;4.60;3.00;;;30.10;99.90;;;;;;5054031;28;20451;-80
2022/08/08 11:43:25;;;;;;;5.00;2.33;;;30.10;99.90;;;;;;5058128;28;20528;-82
2022/08/08 11:45:52;;;;;;;5.97;2.90;;;30.00;99.90;;;;;;5054120;28;20503;-81
2022/08/08 11:48:20;;;;;;;4.83;3.73;;;30.30;99.90;;;;;;5051495;28;20566;-82
2022/08/08 11:50:50;;;;;;;3.40;2.30;;;30.60;99.90;;;;;;5057612;28;20452;-81
2022/08/08 11:53:20;;;;;;;4.43;2.90;;;30.00;99.90;;;;;;5056073;28;20579;-81
2022/08/08 11:55:48;;;;;;;4.70;2.93;;;29.60;99.90;;;;;;5057657;28;20452;-81
2022/08/08 11:58:15;;;;;;;5.63;2.83;;;30.10;99.90;;;;;;5054082;28;20893;-82
2022/08/08 12:00:46;;;;;;;4.87;3.00;;;30.30;99.90;;;;;;5053851;28;21056;-79
2022/08/08 12:03:21;;;;;;;3.43;2.93;;;30.20;99.90;;;;;;5057798;28;20444;-80
2022/08/08 12:05:50;;;;;;;4.47;3.40;;;30.70;99.90;;;;;;5049765;28;20444;-81
2022/08/08 12:08:32;;;;;;;4.20;2.90;;;30.50;99.90;;;;;;5061597;28;20570;-83
2022/08/08 12:11:01;;;;;;;3.23;2.70;;;30.90;99.90;;;;;;5059895;28;20495;-81
2022/08/08 12:13:28;;;;;;;4.80;3.00;;;30.60;99.90;;;;;;5056678;28;20948;-82
2022/08/08 12:16:08;;;;;;;5.07;2.70;;;30.70;99.90;;;;;;5056126;28;20519;-80
2022/08/08 12:18:45;;;;;;;3.67;3.00;;;31.00;99.90;;;;;;5052225;28;20559;-80
2022/08/08 12:21:25;;;;;;;4.27;2.83;;;30.90;99.90;;;;;;5060965;28;20460;-81
2022/08/08 12:24:04;;;;;;;3.20;2.10;;;31.00;99.90;;;;;;5058723;28;20455;-81
2022/08/08 12:26:38;;;;;;;3.33;2.50;;;31.50;99.90;;;;;;5056285;28;20506;-80
2022/08/08 12:29:24;;;;;;;5.00;2.73;;;32.00;98.80;;;;;;5056718;28;20462;-82
2022/08/08 12:32:02;;;;;;;4.00;2.47;;;31.40;99.90;;;;;;5056898;28;20455;-81
2022/08/08 12:34:37;;;;;;;4.17;2.70;;;31.10;99.90;;;;;;5056186;28;20485;-81
2022/08/08 12:37:07;;;;;;;5.47;2.67;;;31.30;99.90;;;;;;5057051;28;20562;-79
2022/08/08 12:39:34;;;;;;;4.37;2.50;;;31.40;99.90;;;;;;5056870;28;20456;-81
2022/08/08 12:42:01;;;;;;;8.07;2.70;;;31.70;97.00;;;;;;5057296;28;20576;-80
2022/08/08 12:44:29;;;;;;;3.30;2.47;;;31.60;99.90;;;;;;5055571;28;20479;-79
2022/08/08 12:46:57;;;;;;;5.50;2.73;;;31.60;99.90;;;;;;5056856;28;20558;-80
2022/08/08 12:49:30;;;;;;;3.43;2.57;;;31.00;99.90;;;;;;5056397;28;20543;-80
2022/08/08 12:51:58;;;;;;;7.30;3.30;;;31.40;99.90;;;;;;5056086;28;20515;-81
2022/08/08 12:54:28;;;;;;;3.53;2.10;;;31.90;99.90;;;;;;5056275;28;20551;-79
2022/08/08 12:56:55;;;;;;;3.93;2.70;;;31.40;99.90;;;;;;5051477;28;20927;-80
2022/08/08 12:59:24;;;;;;;3.53;2.50;;;31.70;99.90;;;;;;5050943;28;20506;-80
2022/08/08 13:01:53;;;;;;;4.60;2.93;;;32.10;99.90;;;;;;5054581;28;20547;-80
2022/08/08 13:04:22;;;;;;;5.77;3.00;;;32.40;99.90;;;;;;5050090;28;20470;-81
2022/08/08 13:07:00;;;;;;;5.97;3.27;;;32.30;99.90;;;;;;5055543;28;20472;-81
2022/08/08 13:09:40;;;;;;;5.17;3.07;;;31.60;99.00;;;;;;5053552;28;20452;-81
2022/08/08 13:12:15;;;;;;;7.00;3.13;;;30.60;98.20;;;;;;5047617;28;20542;-81
2022/08/08 13:14:45;;;;;;;4.40;2.80;;;30.30;99.90;;;;;;5052071;28;20570;-82
2022/08/08 13:17:13;;;;;;;3.90;2.40;;;30.40;98.70;;;;;;5048643;28;20479;-82
2022/08/08 13:19:39;;;;;;;3.10;2.33;;;30.90;99.90;;;;;;5050165;28;20448;-81
2022/08/08 13:22:08;;;;;;;5.37;2.80;;;31.40;99.90;;;;;;5049851;28;20483;-82
2022/08/08 13:24:39;;;;;;;3.93;2.83;;;32.10;99.90;;;;;;5052199;28;20448;-82
2022/08/08 13:27:07;;;;;;;6.10;2.70;;;32.10;99.90;;;;;;5049446;28;20483;-80
2022/08/08 13:29:35;;;;;;;3.20;1.90;;;31.90;99.90;;;;;;5047754;28;20452;-83
2022/08/08 13:32:04;;;;;;;3.97;2.83;;;32.20;97.50;;;;;;5052511;28;20448;-80